Time;durP1;ratioP1;P1;durP2;ratioP2;P2;SDS_P1;SDS_P2;PMS_P1;PMS_P2;Temp;Humidity;BMP_temperature;BMP_pressure;BME280_temperature;BME280_humidity;BME280_pressure;Samples;Min_cycle;Max_cycle;Signal;HPM_P1;HPM_P2
2021/07/11 21:18:06;;;;;;;6.30;5.70;;;;;;;17.28;79.22;97197.03;5089830;27;1441651;-77
2021/07/11 21:20:33;;;;;;;6.35;5.85;;;;;;;17.81;76.25;97188.00;5120630;28;20038;-77
2021/07/11 21:22:59;;;;;;;6.40;5.80;;;;;;;18.04;74.91;97196.06;5113596;28;20032;-77
2021/07/11 21:25:26;;;;;;;5.78;5.28;;;;;;;18.13;73.89;97189.84;5117079;28;20046;-75
2021/07/11 21:27:52;;;;;;;6.75;5.50;;;;;;;18.08;73.77;97189.94;5117581;28;20069;-75
2021/07/11 21:30:22;;;;;;;5.97;5.03;;;;;;;18.03;73.42;97187.38;5101000;28;20024;-75
2021/07/11 21:32:52;;;;;;;5.82;5.03;;;;;;;18.00;73.42;97184.56;5106394;28;20449;-75
2021/07/11 21:35:19;;;;;;;5.75;5.25;;;;;;;18.03;73.52;97191.88;5100721;28;20084;-75
2021/07/11 21:37:47;;;;;;;5.97;5.38;;;;;;;18.11;73.15;97184.09;5117223;28;20118;-75
2021/07/11 21:40:13;;;;;;;5.60;5.10;;;;;;;18.19;72.97;97187.88;5097303;28;20081;-75
2021/07/11 21:42:39;;;;;;;5.93;5.43;;;;;;;18.20;72.81;97183.38;5084671;28;20416;-76
2021/07/11 21:45:06;;;;;;;5.07;4.68;;;;;;;18.11;72.54;97185.91;5116663;28;20606;-75
2021/07/11 21:47:31;;;;;;;5.07;4.68;;;;;;;18.11;72.32;97193.81;5118494;28;20047;-76
2021/07/11 21:49:57;;;;;;;5.38;4.88;;;;;;;17.99;72.65;97194.28;5119812;28;20065;-75
2021/07/11 21:52:22;;;;;;;5.55;4.95;;;;;;;18.00;72.33;97189.84;5117726;27;20111;-76
2021/07/11 21:54:47;;;;;;;5.00;4.53;;;;;;;17.97;72.23;97193.81;5118428;28;20062;-75
2021/07/11 21:57:13;;;;;;;5.28;4.68;;;;;;;17.99;72.31;97193.53;5118153;28;20505;-75
2021/07/11 21:59:39;;;;;;;5.55;5.03;;;;;;;17.98;72.41;97191.97;5116931;28;20028;-76
2021/07/11 22:02:05;;;;;;;5.03;4.63;;;;;;;18.01;72.38;97192.19;5121773;28;20031;-76
2021/07/11 22:04:30;;;;;;;4.90;4.43;;;;;;;17.98;72.37;97187.47;5120421;28;20115;-75
2021/07/11 22:06:56;;;;;;;4.90;4.40;;;;;;;17.96;72.30;97187.00;5122438;28;20547;-75
2021/07/11 22:09:21;;;;;;;5.35;4.50;;;;;;;17.95;72.36;97188.06;5126298;28;20035;-76
2021/07/11 22:11:47;;;;;;;7.13;4.95;;;;;;;17.94;72.17;97192.56;5126041;28;20069;-75
2021/07/11 22:14:12;;;;;;;5.18;4.78;;;;;;;17.88;72.11;97193.72;5127496;27;20039;-75
2021/07/11 22:16:38;;;;;;;5.15;4.63;;;;;;;17.86;72.61;97195.06;5125687;28;20123;-76
2021/07/11 22:19:03;;;;;;;5.32;4.75;;;;;;;17.82;72.28;97194.84;5125735;28;20031;-75
2021/07/11 22:21:29;;;;;;;5.82;4.63;;;;;;;17.79;72.56;97190.94;5108453;28;20043;-76
2021/07/11 22:23:55;;;;;;;5.30;4.80;;;;;;;17.78;72.28;97188.59;5108720;28;20027;-76
2021/07/11 22:26:21;;;;;;;5.50;5.00;;;;;;;17.75;72.25;97191.81;5106533;28;20344;-76
2021/07/11 22:28:46;;;;;;;5.55;5.05;;;;;;;17.69;72.79;97199.00;5113853;28;20024;-75
2021/07/11 22:31:12;;;;;;;5.38;4.88;;;;;;;17.51;73.08;97195.38;5051122;28;20023;-76
2021/07/11 22:33:38;;;;;;;5.35;4.93;;;;;;;17.46;72.99;97186.75;5086471;28;20482;-76
2021/07/11 22:36:03;;;;;;;6.88;5.03;;;;;;;17.47;72.62;97191.75;5108111;28;20059;-75
2021/07/11 22:38:31;;;;;;;5.97;4.53;;;;;;;17.55;72.81;97190.31;5087809;28;20516;-75
2021/07/11 22:40:59;;;;;;;4.82;4.32;;;;;;;17.48;72.89;97184.63;5106596;28;20032;-76
2021/07/11 22:43:25;;;;;;;5.00;4.60;;;;;;;17.41;72.84;97175.25;5081857;28;20551;-76
2021/07/11 22:45:52;;;;;;;5.40;4.93;;;;;;;17.35;72.82;97176.41;5073072;28;20035;-76
2021/07/11 22:48:17;;;;;;;5.50;5.00;;;;;;;17.32;72.77;97170.94;5088191;28;20198;-76
2021/07/11 22:50:43;;;;;;;5.50;5.00;;;;;;;17.27;73.10;97163.88;5104443;28;20139;-76
2021/07/11 22:53:08;;;;;;;5.53;5.03;;;;;;;17.27;72.81;97163.88;5073986;28;20027;-76
2021/07/11 22:55:34;;;;;;;5.10;4.70;;;;;;;17.25;72.77;97157.38;5107615;28;20023;-76
2021/07/11 22:57:59;;;;;;;7.13;5.70;;;;;;;17.16;73.39;97144.88;5090971;28;20053;-76
2021/07/11 23:00:31;;;;;;;6.22;5.28;;;;;;;17.02;73.38;97142.19;5105560;28;20557;-76
2021/07/11 23:02:57;;;;;;;5.53;4.70;;;;;;;17.12;73.37;97140.44;5088991;28;20027;-76
2021/07/11 23:05:23;;;;;;;5.40;4.90;;;;;;;17.13;73.26;97142.81;5110423;28;20031;-76
2021/07/11 23:07:49;;;;;;;4.90;4.50;;;;;;;17.08;73.01;97134.22;5091344;28;20044;-76
2021/07/11 23:10:16;;;;;;;5.78;5.15;;;;;;;17.03;73.49;97141.13;5088877;28;20027;-76
2021/07/11 23:12:42;;;;;;;4.93;4.53;;;;;;;17.08;73.54;97136.84;5108839;28;20106;-76
2021/07/11 23:15:10;;;;;;;5.45;4.68;;;;;;;17.02;73.59;97129.03;5092273;28;20126;-76
2021/07/11 23:17:36;;;;;;;4.88;4.13;;;;;;;17.04;73.11;97123.50;5091782;28;20111;-76
2021/07/11 23:20:09;;;;;;;5.00;4.50;;;;;;;16.89;73.87;97118.47;5091344;28;20158;-76
2021/07/11 23:22:35;;;;;;;5.35;4.43;;;;;;;17.03;73.25;97121.91;5075447;28;20031;-76
2021/07/11 23:25:01;;;;;;;4.55;4.10;;;;;;;16.99;73.16;97129.59;5108899;28;20111;-76
2021/07/11 23:27:27;;;;;;;5.00;4.50;;;;;;;16.96;73.37;97119.66;5092343;28;20498;-76
2021/07/11 23:29:52;;;;;;;5.57;4.70;;;;;;;16.90;73.49;97122.66;5106961;28;20040;-76
2021/07/11 23:32:18;;;;;;;5.47;4.88;;;;;;;16.88;73.06;97111.63;5106991;28;20386;-76
2021/07/11 23:34:43;;;;;;;4.85;4.45;;;;;;;16.89;73.24;97116.59;5108933;28;20378;-76
2021/07/11 23:37:09;;;;;;;4.43;4.07;;;;;;;16.88;72.85;97120.31;5090188;28;20027;-76
2021/07/11 23:39:34;;;;;;;4.78;4.10;;;;;;;16.87;73.24;97118.75;5107577;28;20032;-76
2021/07/11 23:41:59;;;;;;;4.65;4.20;;;;;;;16.87;73.34;97117.97;5108857;28;20040;-76
2021/07/11 23:44:25;;;;;;;5.22;4.25;;;;;;;16.87;73.46;97118.75;5075433;28;20035;-76
2021/07/11 23:46:50;;;;;;;3.90;3.50;;;;;;;16.83;72.83;97108.00;5107958;28;20285;-76
2021/07/11 23:49:16;;;;;;;4.50;4.10;;;;;;;16.79;73.26;97095.69;5085355;28;20054;-76
2021/07/11 23:51:41;;;;;;;4.72;4.32;;;;;;;16.76;73.27;97101.50;5084707;28;20032;-76
2021/07/11 23:54:06;;;;;;;4.68;4.28;;;;;;;16.78;73.22;97102.81;5086210;28;20567;-76
2021/07/11 23:56:32;;;;;;;4.60;4.20;;;;;;;16.78;72.94;97105.44;5108011;28;20031;-76
2021/07/11 23:58:57;;;;;;;5.85;4.20;;;;;;;16.76;72.53;97106.78;5108457;28;20439;-76
